Evolution — 2FKB6 — position and weather

sailwx.info

Track history (hours):
 
Tides and Currents Weather Stations Pressure Air Temp Water Temp Dewpoint Dewpoint Depression Visibility Wind Speed Wind Dir Waves Ship Positions

Evolution

Last reported at 2014-Jun-22 20:15 UTC. Time now 2014-Jul-23 09:51 UTC.
Position N 43°06' E 004°58'.
Warning: this ship's position is 30 days out of date.

Type: Sailing vessel. MMSI: 235091936.

Date/timePositionNaut miles runAvg speedWind from/ knotsBaromVisibWave heightAir tempDewpointWater temp
2014-Jun-22 20:15N 43°06' E 004°58'29 6.1
2014-Jun-22 15:28N 43°01' E 005°37'6 7.1
2014-Jun-22 14:33N 42°60' E 005°46'6 6.0
2014-Jun-22 13:33N 42°59' E 005°54'5 4.8
2014-Jun-22 12:33N 42°58' E 006°00'8 8.1
2014-Jun-22 11:32N 42°56' E 006°11'8 8.6
2014-Jun-22 10:33N 42°55' E 006°23'10 8.5
2014-Jun-22 09:19N 42°53' E 006°37'6 8.1
2014-Jun-22 08:33N 42°52' E 006°45'8 7.8
2014-Jun-22 07:33N 42°50' E 006°55'8 7.6
2014-Jun-22 06:33N 42°49' E 007°05'7 7.4
2014-Jun-22 05:33N 42°47' E 007°15'8 7.4
2014-Jun-22 04:31N 42°45' E 007°26'7 7.5
2014-Jun-22 03:33N 42°44' E 007°35'7 7.4
2014-Jun-22 02:33N 42°43' E 007°45'7 7.5
2014-Jun-22 01:33N 42°41' E 007°55'7 7.1
2014-Jun-22 00:33N 42°40' E 008°05'8 7.3
2014-Jun-21 23:28N 42°39' E 008°15'  
Track history (hours):
 
Tides and Currents Weather Stations Pressure Air Temp Water Temp Dewpoint Dewpoint Depression Visibility Wind Speed Wind Dir Waves Ship Positions

Evolution

Last reported at 2014-Jun-22 20:15 UTC. Time now 2014-Jul-23 09:51 UTC.
Position N 43°06' E 004°58'.
Warning: this ship's position is 30 days out of date.

Type: Sailing vessel. MMSI: 235091936.

Date/timePositionNaut miles runAvg speedWind from/ knotsBaromVisibWave heightAir tempDewpointWater temp
2014-Jun-22 20:15N 43°06' E 004°58'29 6.1
2014-Jun-22 15:28N 43°01' E 005°37'6 7.1
2014-Jun-22 14:33N 42°60' E 005°46'6 6.0
2014-Jun-22 13:33N 42°59' E 005°54'5 4.8
2014-Jun-22 12:33N 42°58' E 006°00'8 8.1
2014-Jun-22 11:32N 42°56' E 006°11'8 8.6
2014-Jun-22 10:33N 42°55' E 006°23'10 8.5
2014-Jun-22 09:19N 42°53' E 006°37'6 8.1
2014-Jun-22 08:33N 42°52' E 006°45'8 7.8
2014-Jun-22 07:33N 42°50' E 006°55'8 7.6
2014-Jun-22 06:33N 42°49' E 007°05'7 7.4
2014-Jun-22 05:33N 42°47' E 007°15'8 7.4
2014-Jun-22 04:31N 42°45' E 007°26'7 7.5
2014-Jun-22 03:33N 42°44' E 007°35'7 7.4
2014-Jun-22 02:33N 42°43' E 007°45'7 7.5
2014-Jun-22 01:33N 42°41' E 007°55'7 7.1
2014-Jun-22 00:33N 42°40' E 008°05'8 7.3
2014-Jun-21 23:28N 42°39' E 008°15'  

Dump ship's entire track history